sensor_id;sensor_type;location;lat;lon;timestamp;temperature;humidity
7814;DHT22;3952;48.364;16.022;2023-06-14T00:00:32;12.50;99.90
7814;DHT22;3952;48.364;16.022;2023-06-14T00:03:00;12.50;99.90
7814;DHT22;3952;48.364;16.022;2023-06-14T00:05:29;12.40;99.90
7814;DHT22;3952;48.364;16.022;2023-06-14T00:07:59;12.30;99.90
7814;DHT22;3952;48.364;16.022;2023-06-14T00:10:29;12.30;99.90
7814;DHT22;3952;48.364;16.022;2023-06-14T00:12:57;12.30;99.90
7814;DHT22;3952;48.364;16.022;2023-06-14T00:15:25;12.30;99.90
7814;DHT22;3952;48.364;16.022;2023-06-14T00:17:52;12.30;99.90
7814;DHT22;3952;48.364;16.022;2023-06-14T00:20:20;12.30;99.90
7814;DHT22;3952;48.364;16.022;2023-06-14T00:22:48;12.30;99.90
7814;DHT22;3952;48.364;16.022;2023-06-14T00:25:17;12.30;99.90
7814;DHT22;3952;48.364;16.022;2023-06-14T00:27:44;12.30;99.90
7814;DHT22;3952;48.364;16.022;2023-06-14T00:30:12;12.30;99.90
7814;DHT22;3952;48.364;16.022;2023-06-14T00:32:40;12.20;99.90
7814;DHT22;3952;48.364;16.022;2023-06-14T00:35:08;12.20;99.90
7814;DHT22;3952;48.364;16.022;2023-06-14T00:37:35;12.10;99.90
7814;DHT22;3952;48.364;16.022;2023-06-14T00:40:04;12.00;99.90
7814;DHT22;3952;48.364;16.022;2023-06-14T00:42:33;12.00;99.90
7814;DHT22;3952;48.364;16.022;2023-06-14T00:45:00;12.00;99.90
7814;DHT22;3952;48.364;16.022;2023-06-14T00:47:28;12.00;99.90
7814;DHT22;3952;48.364;16.022;2023-06-14T00:49:55;11.90;99.90
7814;DHT22;3952;48.364;16.022;2023-06-14T00:52:23;11.90;99.90
7814;DHT22;3952;48.364;16.022;2023-06-14T00:54:51;11.90;99.90
7814;DHT22;3952;48.364;16.022;2023-06-14T00:57:19;11.90;99.90
7814;DHT22;3952;48.364;16.022;2023-06-14T00:59:49;11.90;99.90
7814;DHT22;3952;48.364;16.022;2023-06-14T01:02:17;11.90;99.90
7814;DHT22;3952;48.364;16.022;2023-06-14T01:04:47;11.90;99.90
7814;DHT22;3952;48.364;16.022;2023-06-14T01:07:23;11.90;99.90
7814;DHT22;3952;48.364;16.022;2023-06-14T01:10:03;11.90;99.90
7814;DHT22;3952;48.364;16.022;2023-06-14T01:12:39;11.90;99.90
7814;DHT22;3952;48.364;16.022;2023-06-14T01:15:13;11.90;99.90
7814;DHT22;3952;48.364;16.022;2023-06-14T01:17:41;11.80;99.90
7814;DHT22;3952;48.364;16.022;2023-06-14T01:20:12;11.80;99.90
7814;DHT22;3952;48.364;16.022;2023-06-14T01:22:50;11.70;99.90
7814;DHT22;3952;48.364;16.022;2023-06-14T01:25:18;11.70;99.90
7814;DHT22;3952;48.364;16.022;2023-06-14T01:27:50;11.70;99.90
7814;DHT22;3952;48.364;16.022;2023-06-14T01:30:18;11.70;99.90
7814;DHT22;3952;48.364;16.022;2023-06-14T01:32:47;11.70;99.90
7814;DHT22;3952;48.364;16.022;2023-06-14T01:35:16;11.70;99.90
7814;DHT22;3952;48.364;16.022;2023-06-14T01:37:43;11.60;99.90
7814;DHT22;3952;48.364;16.022;2023-06-14T01:40:15;11.60;99.90
7814;DHT22;3952;48.364;16.022;2023-06-14T01:42:43;11.70;99.90
7814;DHT22;3952;48.364;16.022;2023-06-14T01:45:11;11.70;99.90
7814;DHT22;3952;48.364;16.022;2023-06-14T01:47:39;11.60;99.90
7814;DHT22;3952;48.364;16.022;2023-06-14T01:50:07;11.60;99.90
7814;DHT22;3952;48.364;16.022;2023-06-14T01:52:34;11.50;99.90
7814;DHT22;3952;48.364;16.022;2023-06-14T01:55:02;11.40;99.90
7814;DHT22;3952;48.364;16.022;2023-06-14T01:57:31;11.40;99.90
7814;DHT22;3952;48.364;16.022;2023-06-14T01:59:58;11.40;99.90
7814;DHT22;3952;48.364;16.022;2023-06-14T02:02:25;11.30;99.90
7814;DHT22;3952;48.364;16.022;2023-06-14T02:04:52;11.30;99.90
7814;DHT22;3952;48.364;16.022;2023-06-14T02:07:23;11.30;99.90
7814;DHT22;3952;48.364;16.022;2023-06-14T02:09:50;11.30;99.90
7814;DHT22;3952;48.364;16.022;2023-06-14T02:12:17;11.30;99.90
7814;DHT22;3952;48.364;16.022;2023-06-14T02:14:46;11.20;99.90
7814;DHT22;3952;48.364;16.022;2023-06-14T02:17:14;11.20;99.90
7814;DHT22;3952;48.364;16.022;2023-06-14T02:19:42;11.20;99.90
7814;DHT22;3952;48.364;16.022;2023-06-14T02:22:09;11.20;99.90
7814;DHT22;3952;48.364;16.022;2023-06-14T02:24:36;11.20;99.90
7814;DHT22;3952;48.364;16.022;2023-06-14T02:27:04;11.30;99.90
7814;DHT22;3952;48.364;16.022;2023-06-14T02:29:32;11.30;99.90
7814;DHT22;3952;48.364;16.022;2023-06-14T02:32:01;11.30;99.90
7814;DHT22;3952;48.364;16.022;2023-06-14T02:34:28;11.30;99.90
7814;DHT22;3952;48.364;16.022;2023-06-14T02:36:55;11.30;99.90
7814;DHT22;3952;48.364;16.022;2023-06-14T02:39:22;11.40;99.90
7814;DHT22;3952;48.364;16.022;2023-06-14T02:41:50;11.30;99.90
7814;DHT22;3952;48.364;16.022;2023-06-14T02:44:18;11.30;99.90
7814;DHT22;3952;48.364;16.022;2023-06-14T02:46:45;11.70;99.90
7814;DHT22;3952;48.364;16.022;2023-06-14T02:49:14;11.30;99.90
7814;DHT22;3952;48.364;16.022;2023-06-14T02:51:41;11.20;99.90
7814;DHT22;3952;48.364;16.022;2023-06-14T02:54:08;11.20;99.90
7814;DHT22;3952;48.364;16.022;2023-06-14T02:56:36;11.20;99.90
7814;DHT22;3952;48.364;16.022;2023-06-14T02:59:04;11.20;99.90
7814;DHT22;3952;48.364;16.022;2023-06-14T03:01:31;11.20;99.90
7814;DHT22;3952;48.364;16.022;2023-06-14T03:04:00;11.20;99.90
7814;DHT22;3952;48.364;16.022;2023-06-14T03:06:30;11.20;99.90
7814;DHT22;3952;48.364;16.022;2023-06-14T03:08:57;11.20;99.90
7814;DHT22;3952;48.364;16.022;2023-06-14T03:11:27;11.20;99.90
7814;DHT22;3952;48.364;16.022;2023-06-14T03:13:54;11.20;99.90
7814;DHT22;3952;48.364;16.022;2023-06-14T03:16:22;11.20;99.90
7814;DHT22;3952;48.364;16.022;2023-06-14T03:18:51;11.20;99.90
7814;DHT22;3952;48.364;16.022;2023-06-14T03:21:18;11.20;99.90
7814;DHT22;3952;48.364;16.022;2023-06-14T03:23:47;11.20;99.90
7814;DHT22;3952;48.364;16.022;2023-06-14T03:26:15;11.20;99.90
7814;DHT22;3952;48.364;16.022;2023-06-14T03:28:43;11.20;99.90
7814;DHT22;3952;48.364;16.022;2023-06-14T03:31:11;11.20;99.90
7814;DHT22;3952;48.364;16.022;2023-06-14T03:33:38;11.20;99.90
7814;DHT22;3952;48.364;16.022;2023-06-14T03:36:06;11.30;99.90
7814;DHT22;3952;48.364;16.022;2023-06-14T03:38:33;11.20;99.90
7814;DHT22;3952;48.364;16.022;2023-06-14T03:41:02;11.30;99.90
7814;DHT22;3952;48.364;16.022;2023-06-14T03:43:29;11.30;99.90
7814;DHT22;3952;48.364;16.022;2023-06-14T03:45:57;11.30;99.90
7814;DHT22;3952;48.364;16.022;2023-06-14T03:48:24;11.30;99.90
7814;DHT22;3952;48.364;16.022;2023-06-14T03:50:51;11.30;99.90
7814;DHT22;3952;48.364;16.022;2023-06-14T03:53:20;11.30;99.90
7814;DHT22;3952;48.364;16.022;2023-06-14T03:55:49;11.20;99.90
7814;DHT22;3952;48.364;16.022;2023-06-14T03:58:19;11.30;99.90
7814;DHT22;3952;48.364;16.022;2023-06-14T04:00:47;11.30;99.90
7814;DHT22;3952;48.364;16.022;2023-06-14T04:03:14;11.30;99.90
7814;DHT22;3952;48.364;16.022;2023-06-14T04:05:42;11.30;99.90
7814;DHT22;3952;48.364;16.022;2023-06-14T04:08:10;11.40;99.90
7814;DHT22;3952;48.364;16.022;2023-06-14T04:10:40;11.40;99.90
7814;DHT22;3952;48.364;16.022;2023-06-14T04:13:07;11.50;99.90
7814;DHT22;3952;48.364;16.022;2023-06-14T04:15:39;11.50;99.90
7814;DHT22;3952;48.364;16.022;2023-06-14T04:18:08;11.50;99.90
7814;DHT22;3952;48.364;16.022;2023-06-14T04:20:35;11.60;99.90
7814;DHT22;3952;48.364;16.022;2023-06-14T04:23:12;11.60;99.90
7814;DHT22;3952;48.364;16.022;2023-06-14T04:25:40;11.70;99.90
7814;DHT22;3952;48.364;16.022;2023-06-14T04:28:11;11.90;99.90
7814;DHT22;3952;48.364;16.022;2023-06-14T04:30:43;12.00;99.90
7814;DHT22;3952;48.364;16.022;2023-06-14T04:33:10;12.10;99.90
7814;DHT22;3952;48.364;16.022;2023-06-14T04:35:38;12.10;99.90
7814;DHT22;3952;48.364;16.022;2023-06-14T04:38:06;12.20;99.90
7814;DHT22;3952;48.364;16.022;2023-06-14T04:40:35;12.20;99.90
7814;DHT22;3952;48.364;16.022;2023-06-14T04:43:08;12.30;99.90
7814;DHT22;3952;48.364;16.022;2023-06-14T04:45:38;12.30;99.90
7814;DHT22;3952;48.364;16.022;2023-06-14T04:48:08;12.40;99.90
7814;DHT22;3952;48.364;16.022;2023-06-14T04:50:36;12.40;99.90
7814;DHT22;3952;48.364;16.022;2023-06-14T04:53:03;12.40;99.90
7814;DHT22;3952;48.364;16.022;2023-06-14T04:55:32;12.50;99.90
7814;DHT22;3952;48.364;16.022;2023-06-14T04:58:00;12.60;99.90
7814;DHT22;3952;48.364;16.022;2023-06-14T05:00:27;12.70;99.90
7814;DHT22;3952;48.364;16.022;2023-06-14T05:02:56;12.80;99.90
7814;DHT22;3952;48.364;16.022;2023-06-14T05:05:25;12.80;99.90
7814;DHT22;3952;48.364;16.022;2023-06-14T05:07:52;13.00;99.90
7814;DHT22;3952;48.364;16.022;2023-06-14T05:10:19;13.20;99.90
7814;DHT22;3952;48.364;16.022;2023-06-14T05:12:46;13.30;99.90
7814;DHT22;3952;48.364;16.022;2023-06-14T05:15:14;13.40;99.90
7814;DHT22;3952;48.364;16.022;2023-06-14T05:17:42;13.50;99.90
7814;DHT22;3952;48.364;16.022;2023-06-14T05:20:09;13.60;99.90
7814;DHT22;3952;48.364;16.022;2023-06-14T05:22:38;13.80;99.90
7814;DHT22;3952;48.364;16.022;2023-06-14T05:25:06;13.90;99.90
7814;DHT22;3952;48.364;16.022;2023-06-14T05:27:33;14.00;99.90
7814;DHT22;3952;48.364;16.022;2023-06-14T05:30:03;14.10;99.90
7814;DHT22;3952;48.364;16.022;2023-06-14T05:32:30;14.20;99.90
7814;DHT22;3952;48.364;16.022;2023-06-14T05:34:58;14.20;99.90
7814;DHT22;3952;48.364;16.022;2023-06-14T05:37:25;14.40;99.90
7814;DHT22;3952;48.364;16.022;2023-06-14T05:39:54;14.40;99.90
7814;DHT22;3952;48.364;16.022;2023-06-14T05:42:21;14.50;99.90
7814;DHT22;3952;48.364;16.022;2023-06-14T05:44:48;14.60;99.90
7814;DHT22;3952;48.364;16.022;2023-06-14T05:47:15;14.70;99.90
7814;DHT22;3952;48.364;16.022;2023-06-14T05:49:42;14.80;99.90
7814;DHT22;3952;48.364;16.022;2023-06-14T05:52:09;14.90;99.90
7814;DHT22;3952;48.364;16.022;2023-06-14T05:54:38;15.00;99.90
7814;DHT22;3952;48.364;16.022;2023-06-14T05:57:08;15.10;99.90
7814;DHT22;3952;48.364;16.022;2023-06-14T05:59:36;15.20;99.90
7814;DHT22;3952;48.364;16.022;2023-06-14T06:02:04;15.30;99.90
7814;DHT22;3952;48.364;16.022;2023-06-14T06:04:31;15.40;99.90
7814;DHT22;3952;48.364;16.022;2023-06-14T06:06:58;15.40;99.90
7814;DHT22;3952;48.364;16.022;2023-06-14T06:09:25;15.50;99.90
7814;DHT22;3952;48.364;16.022;2023-06-14T06:11:52;15.60;99.90
7814;DHT22;3952;48.364;16.022;2023-06-14T06:14:21;15.70;99.90
7814;DHT22;3952;48.364;16.022;2023-06-14T06:16:48;15.80;99.90
7814;DHT22;3952;48.364;16.022;2023-06-14T06:19:16;16.00;99.90
7814;DHT22;3952;48.364;16.022;2023-06-14T06:21:43;16.00;99.90
7814;DHT22;3952;48.364;16.022;2023-06-14T06:24:10;16.20;99.90
7814;DHT22;3952;48.364;16.022;2023-06-14T06:26:37;16.10;99.90
7814;DHT22;3952;48.364;16.022;2023-06-14T06:29:05;16.20;99.90
7814;DHT22;3952;48.364;16.022;2023-06-14T06:31:34;16.30;99.90
7814;DHT22;3952;48.364;16.022;2023-06-14T06:34:01;16.40;99.90
7814;DHT22;3952;48.364;16.022;2023-06-14T06:36:28;16.50;99.90
7814;DHT22;3952;48.364;16.022;2023-06-14T06:38:55;16.50;99.90
7814;DHT22;3952;48.364;16.022;2023-06-14T06:41:23;16.60;99.90
7814;DHT22;3952;48.364;16.022;2023-06-14T06:43:50;16.80;99.90
7814;DHT22;3952;48.364;16.022;2023-06-14T06:46:17;16.90;99.90
7814;DHT22;3952;48.364;16.022;2023-06-14T06:48:46;17.00;99.90
7814;DHT22;3952;48.364;16.022;2023-06-14T06:51:14;17.10;99.90
7814;DHT22;3952;48.364;16.022;2023-06-14T06:53:42;17.10;99.90
7814;DHT22;3952;48.364;16.022;2023-06-14T06:56:10;17.20;99.90
7814;DHT22;3952;48.364;16.022;2023-06-14T06:58:37;17.30;99.90
7814;DHT22;3952;48.364;16.022;2023-06-14T07:01:04;17.40;99.90
7814;DHT22;3952;48.364;16.022;2023-06-14T07:03:32;17.30;99.90
7814;DHT22;3952;48.364;16.022;2023-06-14T07:06:00;17.40;99.90
7814;DHT22;3952;48.364;16.022;2023-06-14T07:08:27;17.60;99.90
7814;DHT22;3952;48.364;16.022;2023-06-14T07:10:55;17.70;99.90
7814;DHT22;3952;48.364;16.022;2023-06-14T07:13:22;17.70;99.90
7814;DHT22;3952;48.364;16.022;2023-06-14T07:15:49;17.80;99.90
7814;DHT22;3952;48.364;16.022;2023-06-14T07:18:19;17.90;99.90
7814;DHT22;3952;48.364;16.022;2023-06-14T07:20:46;18.00;99.90
7814;DHT22;3952;48.364;16.022;2023-06-14T07:23:15;18.20;99.90
7814;DHT22;3952;48.364;16.022;2023-06-14T07:25:42;18.40;99.90
7814;DHT22;3952;48.364;16.022;2023-06-14T07:28:09;18.60;99.90
7814;DHT22;3952;48.364;16.022;2023-06-14T07:30:36;18.70;99.90
7814;DHT22;3952;48.364;16.022;2023-06-14T07:33:03;18.80;99.90
7814;DHT22;3952;48.364;16.022;2023-06-14T07:35:31;18.90;99.90
7814;DHT22;3952;48.364;16.022;2023-06-14T07:37:58;18.90;99.90
7814;DHT22;3952;48.364;16.022;2023-06-14T07:40:27;18.90;99.90
7814;DHT22;3952;48.364;16.022;2023-06-14T07:42:54;18.90;99.90
7814;DHT22;3952;48.364;16.022;2023-06-14T07:45:21;19.00;99.90
7814;DHT22;3952;48.364;16.022;2023-06-14T07:47:49;19.20;99.90
7814;DHT22;3952;48.364;16.022;2023-06-14T07:50:17;19.40;99.90
7814;DHT22;3952;48.364;16.022;2023-06-14T07:52:45;19.40;99.90
7814;DHT22;3952;48.364;16.022;2023-06-14T07:55:12;19.50;99.90
7814;DHT22;3952;48.364;16.022;2023-06-14T07:57:42;19.60;99.90
7814;DHT22;3952;48.364;16.022;2023-06-14T08:00:10;19.70;99.90
7814;DHT22;3952;48.364;16.022;2023-06-14T08:02:41;19.80;99.90
7814;DHT22;3952;48.364;16.022;2023-06-14T08:05:09;19.90;99.90
7814;DHT22;3952;48.364;16.022;2023-06-14T08:07:36;19.80;99.90
7814;DHT22;3952;48.364;16.022;2023-06-14T08:10:04;19.80;99.90
7814;DHT22;3952;48.364;16.022;2023-06-14T08:12:32;20.10;99.90
7814;DHT22;3952;48.364;16.022;2023-06-14T08:15:01;20.10;99.90
7814;DHT22;3952;48.364;16.022;2023-06-14T08:17:28;20.20;99.90
7814;DHT22;3952;48.364;16.022;2023-06-14T08:19:55;20.30;99.90
7814;DHT22;3952;48.364;16.022;2023-06-14T08:22:22;20.40;99.90
7814;DHT22;3952;48.364;16.022;2023-06-14T08:24:51;20.30;99.90
7814;DHT22;3952;48.364;16.022;2023-06-14T08:27:19;20.30;99.90
7814;DHT22;3952;48.364;16.022;2023-06-14T08:29:48;20.30;99.90
7814;DHT22;3952;48.364;16.022;2023-06-14T08:32:16;20.40;99.90
7814;DHT22;3952;48.364;16.022;2023-06-14T08:34:43;20.40;99.90
7814;DHT22;3952;48.364;16.022;2023-06-14T08:37:10;20.30;99.90
7814;DHT22;3952;48.364;16.022;2023-06-14T08:39:38;20.30;99.90
7814;DHT22;3952;48.364;16.022;2023-06-14T08:42:06;20.40;99.90
7814;DHT22;3952;48.364;16.022;2023-06-14T08:44:34;20.50;99.90
7814;DHT22;3952;48.364;16.022;2023-06-14T08:47:02;20.60;99.90
7814;DHT22;3952;48.364;16.022;2023-06-14T08:49:32;20.80;99.90
7814;DHT22;3952;48.364;16.022;2023-06-14T08:52:01;20.90;99.90
7814;DHT22;3952;48.364;16.022;2023-06-14T08:54:29;21.00;99.90
7814;DHT22;3952;48.364;16.022;2023-06-14T08:56:58;21.20;99.90
7814;DHT22;3952;48.364;16.022;2023-06-14T08:59:26;21.20;99.90
7814;DHT22;3952;48.364;16.022;2023-06-14T09:01:54;21.50;99.90
7814;DHT22;3952;48.364;16.022;2023-06-14T09:04:22;21.60;99.90
7814;DHT22;3952;48.364;16.022;2023-06-14T09:06:51;21.70;99.90
7814;DHT22;3952;48.364;16.022;2023-06-14T09:09:20;21.70;99.90
7814;DHT22;3952;48.364;16.022;2023-06-14T09:11:49;21.80;99.90
7814;DHT22;3952;48.364;16.022;2023-06-14T09:14:17;21.90;99.90
7814;DHT22;3952;48.364;16.022;2023-06-14T09:16:44;22.00;99.90
7814;DHT22;3952;48.364;16.022;2023-06-14T09:19:20;22.10;99.90
7814;DHT22;3952;48.364;16.022;2023-06-14T09:21:51;22.20;99.90
7814;DHT22;3952;48.364;16.022;2023-06-14T09:24:19;22.20;99.90
7814;DHT22;3952;48.364;16.022;2023-06-14T09:26:47;22.10;99.90
7814;DHT22;3952;48.364;16.022;2023-06-14T09:29:16;22.20;99.90
7814;DHT22;3952;48.364;16.022;2023-06-14T09:31:46;22.20;99.90
7814;DHT22;3952;48.364;16.022;2023-06-14T09:34:14;22.20;99.90
7814;DHT22;3952;48.364;16.022;2023-06-14T09:36:44;22.20;99.90
7814;DHT22;3952;48.364;16.022;2023-06-14T09:39:17;22.40;99.90
7814;DHT22;3952;48.364;16.022;2023-06-14T09:41:44;22.40;99.90
7814;DHT22;3952;48.364;16.022;2023-06-14T09:44:12;22.30;99.90
7814;DHT22;3952;48.364;16.022;2023-06-14T09:46:39;22.20;99.90
7814;DHT22;3952;48.364;16.022;2023-06-14T09:49:07;22.20;99.90
7814;DHT22;3952;48.364;16.022;2023-06-14T09:51:41;22.30;99.90
7814;DHT22;3952;48.364;16.022;2023-06-14T09:54:14;22.50;99.90
7814;DHT22;3952;48.364;16.022;2023-06-14T09:56:44;22.60;98.90
7814;DHT22;3952;48.364;16.022;2023-06-14T09:59:13;22.60;98.50
7814;DHT22;3952;48.364;16.022;2023-06-14T10:01:43;22.70;99.90
7814;DHT22;3952;48.364;16.022;2023-06-14T10:04:12;22.70;98.00
7814;DHT22;3952;48.364;16.022;2023-06-14T10:06:45;22.70;99.90
7814;DHT22;3952;48.364;16.022;2023-06-14T10:09:14;22.80;99.10
7814;DHT22;3952;48.364;16.022;2023-06-14T10:11:42;22.80;99.00
7814;DHT22;3952;48.364;16.022;2023-06-14T10:14:12;22.90;99.90
7814;DHT22;3952;48.364;16.022;2023-06-14T10:16:45;22.90;99.30
7814;DHT22;3952;48.364;16.022;2023-06-14T10:19:21;22.90;98.10
7814;DHT22;3952;48.364;16.022;2023-06-14T10:21:55;22.90;99.70
7814;DHT22;3952;48.364;16.022;2023-06-14T10:24:29;22.70;98.10
7814;DHT22;3952;48.364;16.022;2023-06-14T10:26:59;22.60;98.10
7814;DHT22;3952;48.364;16.022;2023-06-14T10:29:26;22.70;97.30
7814;DHT22;3952;48.364;16.022;2023-06-14T10:31:58;22.90;97.50
7814;DHT22;3952;48.364;16.022;2023-06-14T10:34:28;23.00;96.40
7814;DHT22;3952;48.364;16.022;2023-06-14T10:37:02;23.00;96.90
7814;DHT22;3952;48.364;16.022;2023-06-14T10:39:32;23.10;96.60
7814;DHT22;3952;48.364;16.022;2023-06-14T10:42:02;23.00;96.50
7814;DHT22;3952;48.364;16.022;2023-06-14T10:44:41;23.00;96.20
7814;DHT22;3952;48.364;16.022;2023-06-14T10:47:26;22.90;97.60
7814;DHT22;3952;48.364;16.022;2023-06-14T10:49:54;22.90;96.90
7814;DHT22;3952;48.364;16.022;2023-06-14T10:52:25;23.00;95.90
7814;DHT22;3952;48.364;16.022;2023-06-14T10:55:02;23.00;95.60
7814;DHT22;3952;48.364;16.022;2023-06-14T10:57:32;22.80;95.70
7814;DHT22;3952;48.364;16.022;2023-06-14T11:00:00;22.80;96.00
7814;DHT22;3952;48.364;16.022;2023-06-14T11:05:43;22.70;96.10
7814;DHT22;3952;48.364;16.022;2023-06-14T11:08:30;22.90;97.00
7814;DHT22;3952;48.364;16.022;2023-06-14T11:11:06;23.00;95.50
7814;DHT22;3952;48.364;16.022;2023-06-14T11:13:33;23.00;95.90
7814;DHT22;3952;48.364;16.022;2023-06-14T11:16:01;23.00;96.20
7814;DHT22;3952;48.364;16.022;2023-06-14T11:18:28;22.90;94.90
7814;DHT22;3952;48.364;16.022;2023-06-14T11:20:56;22.90;95.20
7814;DHT22;3952;48.364;16.022;2023-06-14T11:23:23;23.10;95.50
7814;DHT22;3952;48.364;16.022;2023-06-14T11:25:51;23.10;95.50
7814;DHT22;3952;48.364;16.022;2023-06-14T11:28:19;23.10;95.30
7814;DHT22;3952;48.364;16.022;2023-06-14T11:30:47;23.10;95.60
7814;DHT22;3952;48.364;16.022;2023-06-14T11:33:17;23.10;94.00
7814;DHT22;3952;48.364;16.022;2023-06-14T11:35:45;23.10;94.80
7814;DHT22;3952;48.364;16.022;2023-06-14T11:38:13;23.20;95.40
7814;DHT22;3952;48.364;16.022;2023-06-14T11:40:40;23.20;96.00
7814;DHT22;3952;48.364;16.022;2023-06-14T11:43:07;23.20;94.50
7814;DHT22;3952;48.364;16.022;2023-06-14T11:45:36;23.20;94.10
7814;DHT22;3952;48.364;16.022;2023-06-14T11:48:03;23.20;95.80
7814;DHT22;3952;48.364;16.022;2023-06-14T11:50:30;23.30;96.30
7814;DHT22;3952;48.364;16.022;2023-06-14T11:53:00;23.10;94.50
7814;DHT22;3952;48.364;16.022;2023-06-14T11:55:35;23.10;94.10
7814;DHT22;3952;48.364;16.022;2023-06-14T11:58:02;23.20;94.30
7814;DHT22;3952;48.364;16.022;2023-06-14T12:00:30;23.10;93.90
7814;DHT22;3952;48.364;16.022;2023-06-14T12:02:59;23.00;93.20
7814;DHT22;3952;48.364;16.022;2023-06-14T12:05:26;23.00;94.30
7814;DHT22;3952;48.364;16.022;2023-06-14T12:07:58;23.10;94.80
7814;DHT22;3952;48.364;16.022;2023-06-14T12:10:27;23.20;92.40
7814;DHT22;3952;48.364;16.022;2023-06-14T12:12:57;23.10;93.20
7814;DHT22;3952;48.364;16.022;2023-06-14T12:15:28;23.10;93.30
7814;DHT22;3952;48.364;16.022;2023-06-14T12:17:56;23.20;93.20
7814;DHT22;3952;48.364;16.022;2023-06-14T12:20:29;23.20;94.20
7814;DHT22;3952;48.364;16.022;2023-06-14T12:22:58;23.30;93.60
7814;DHT22;3952;48.364;16.022;2023-06-14T12:25:28;23.40;94.30
7814;DHT22;3952;48.364;16.022;2023-06-14T12:27:57;23.40;93.80
7814;DHT22;3952;48.364;16.022;2023-06-14T12:30:24;23.40;93.20
7814;DHT22;3952;48.364;16.022;2023-06-14T12:32:52;23.50;91.80
7814;DHT22;3952;48.364;16.022;2023-06-14T12:35:19;23.50;91.70
7814;DHT22;3952;48.364;16.022;2023-06-14T12:37:48;23.40;93.00
7814;DHT22;3952;48.364;16.022;2023-06-14T12:40:15;23.40;92.50
7814;DHT22;3952;48.364;16.022;2023-06-14T12:42:44;23.40;92.40
7814;DHT22;3952;48.364;16.022;2023-06-14T12:45:13;23.40;91.70
7814;DHT22;3952;48.364;16.022;2023-06-14T12:47:40;23.30;92.80
7814;DHT22;3952;48.364;16.022;2023-06-14T12:50:08;23.40;92.90
7814;DHT22;3952;48.364;16.022;2023-06-14T12:52:35;23.40;93.10
7814;DHT22;3952;48.364;16.022;2023-06-14T12:55:05;23.40;92.10
7814;DHT22;3952;48.364;16.022;2023-06-14T12:57:32;23.30;91.20
7814;DHT22;3952;48.364;16.022;2023-06-14T13:00:02;23.10;90.80
7814;DHT22;3952;48.364;16.022;2023-06-14T13:02:30;23.10;92.30
7814;DHT22;3952;48.364;16.022;2023-06-14T13:04:57;23.20;93.20
7814;DHT22;3952;48.364;16.022;2023-06-14T13:07:26;23.20;92.80
7814;DHT22;3952;48.364;16.022;2023-06-14T13:09:53;23.30;92.80
7814;DHT22;3952;48.364;16.022;2023-06-14T13:12:21;23.40;92.80
7814;DHT22;3952;48.364;16.022;2023-06-14T13:14:49;23.40;92.00
7814;DHT22;3952;48.364;16.022;2023-06-14T13:17:16;23.40;92.10
7814;DHT22;3952;48.364;16.022;2023-06-14T13:19:43;23.50;93.40
7814;DHT22;3952;48.364;16.022;2023-06-14T13:22:10;23.40;92.50
7814;DHT22;3952;48.364;16.022;2023-06-14T13:24:37;23.30;92.60
7814;DHT22;3952;48.364;16.022;2023-06-14T13:27:05;23.30;92.20
7814;DHT22;3952;48.364;16.022;2023-06-14T13:29:34;23.30;92.20
7814;DHT22;3952;48.364;16.022;2023-06-14T13:32:03;23.40;91.90
7814;DHT22;3952;48.364;16.022;2023-06-14T13:34:30;23.40;92.60
7814;DHT22;3952;48.364;16.022;2023-06-14T13:36:57;23.40;92.00
7814;DHT22;3952;48.364;16.022;2023-06-14T13:39:25;23.50;92.90
7814;DHT22;3952;48.364;16.022;2023-06-14T13:41:52;23.50;91.70
7814;DHT22;3952;48.364;16.022;2023-06-14T13:44:20;23.50;92.30
7814;DHT22;3952;48.364;16.022;2023-06-14T13:46:48;23.50;92.60
7814;DHT22;3952;48.364;16.022;2023-06-14T13:49:15;23.60;90.80
7814;DHT22;3952;48.364;16.022;2023-06-14T13:51:43;23.60;91.60
7814;DHT22;3952;48.364;16.022;2023-06-14T13:54:12;23.50;91.70
7814;DHT22;3952;48.364;16.022;2023-06-14T13:56:40;23.50;91.30
7814;DHT22;3952;48.364;16.022;2023-06-14T13:59:07;23.50;91.30
7814;DHT22;3952;48.364;16.022;2023-06-14T14:01:35;23.40;90.60
7814;DHT22;3952;48.364;16.022;2023-06-14T14:04:04;23.40;91.40
7814;DHT22;3952;48.364;16.022;2023-06-14T14:06:31;23.40;91.00
7814;DHT22;3952;48.364;16.022;2023-06-14T14:08:58;23.40;91.40
7814;DHT22;3952;48.364;16.022;2023-06-14T14:11:26;23.50;90.60
7814;DHT22;3952;48.364;16.022;2023-06-14T14:13:53;23.60;92.20
7814;DHT22;3952;48.364;16.022;2023-06-14T14:16:20;23.50;91.40
7814;DHT22;3952;48.364;16.022;2023-06-14T14:18:48;23.50;91.60
7814;DHT22;3952;48.364;16.022;2023-06-14T14:21:17;23.50;92.00
7814;DHT22;3952;48.364;16.022;2023-06-14T14:23:44;23.50;91.30
7814;DHT22;3952;48.364;16.022;2023-06-14T14:26:12;23.40;89.90
7814;DHT22;3952;48.364;16.022;2023-06-14T14:28:39;23.30;90.90
7814;DHT22;3952;48.364;16.022;2023-06-14T14:31:07;23.30;91.70
7814;DHT22;3952;48.364;16.022;2023-06-14T14:33:34;23.30;91.40
7814;DHT22;3952;48.364;16.022;2023-06-14T14:36:01;23.40;91.10
7814;DHT22;3952;48.364;16.022;2023-06-14T14:38:31;23.40;91.60
7814;DHT22;3952;48.364;16.022;2023-06-14T14:40:58;23.50;91.30
7814;DHT22;3952;48.364;16.022;2023-06-14T14:43:25;23.40;91.00
7814;DHT22;3952;48.364;16.022;2023-06-14T14:45:52;23.20;92.00
7814;DHT22;3952;48.364;16.022;2023-06-14T14:48:20;23.10;92.20
7814;DHT22;3952;48.364;16.022;2023-06-14T14:50:47;23.00;92.50
7814;DHT22;3952;48.364;16.022;2023-06-14T14:53:14;22.90;92.20
7814;DHT22;3952;48.364;16.022;2023-06-14T14:55:44;22.90;92.90
7814;DHT22;3952;48.364;16.022;2023-06-14T14:58:12;22.80;92.20
7814;DHT22;3952;48.364;16.022;2023-06-14T15:00:42;22.70;91.70
7814;DHT22;3952;48.364;16.022;2023-06-14T15:03:09;22.70;91.40
7814;DHT22;3952;48.364;16.022;2023-06-14T15:05:37;22.70;92.20
7814;DHT22;3952;48.364;16.022;2023-06-14T15:08:04;22.80;92.60
7814;DHT22;3952;48.364;16.022;2023-06-14T15:10:36;22.80;92.10
7814;DHT22;3952;48.364;16.022;2023-06-14T15:13:04;22.90;91.80
7814;DHT22;3952;48.364;16.022;2023-06-14T15:15:32;22.90;91.30
7814;DHT22;3952;48.364;16.022;2023-06-14T15:17:59;23.00;92.70
7814;DHT22;3952;48.364;16.022;2023-06-14T15:20:27;23.00;91.80
7814;DHT22;3952;48.364;16.022;2023-06-14T15:22:54;22.90;91.30
7814;DHT22;3952;48.364;16.022;2023-06-14T15:25:25;22.90;92.00
7814;DHT22;3952;48.364;16.022;2023-06-14T15:27:53;22.80;92.00
7814;DHT22;3952;48.364;16.022;2023-06-14T15:30:22;22.70;91.70
7814;DHT22;3952;48.364;16.022;2023-06-14T15:32:49;22.70;92.80
7814;DHT22;3952;48.364;16.022;2023-06-14T15:35:17;22.60;92.90
7814;DHT22;3952;48.364;16.022;2023-06-14T15:37:44;22.60;93.90
7814;DHT22;3952;48.364;16.022;2023-06-14T15:40:12;22.60;93.40
7814;DHT22;3952;48.364;16.022;2023-06-14T15:42:39;22.70;93.20
7814;DHT22;3952;48.364;16.022;2023-06-14T15:45:07;22.70;93.10
7814;DHT22;3952;48.364;16.022;2023-06-14T15:47:36;22.70;94.00
7814;DHT22;3952;48.364;16.022;2023-06-14T15:50:04;22.70;93.80
7814;DHT22;3952;48.364;16.022;2023-06-14T15:52:33;22.60;94.70
7814;DHT22;3952;48.364;16.022;2023-06-14T15:55:00;22.60;95.20